sensor_id;sensor_type;location;lat;lon;timestamp;P1;durP1;ratioP1;P2;durP2;ratioP2
28166;SDS011;15455;53.376;-6.262;2022-08-19T00:00:21;17.63;;;2.08;;
28166;SDS011;15455;53.376;-6.262;2022-08-19T00:03:06;17.10;;;2.28;;
28166;SDS011;15455;53.376;-6.262;2022-08-19T00:05:52;18.50;;;2.35;;
28166;SDS011;15455;53.376;-6.262;2022-08-19T00:08:38;12.00;;;2.08;;
28166;SDS011;15455;53.376;-6.262;2022-08-19T00:11:27;16.05;;;1.83;;
28166;SDS011;15455;53.376;-6.262;2022-08-19T00:14:14;12.63;;;1.95;;
28166;SDS011;15455;53.376;-6.262;2022-08-19T00:17:02;16.98;;;1.98;;
28166;SDS011;15455;53.376;-6.262;2022-08-19T00:19:48;13.43;;;1.92;;
28166;SDS011;15455;53.376;-6.262;2022-08-19T00:22:34;20.00;;;1.98;;
28166;SDS011;15455;53.376;-6.262;2022-08-19T00:25:19;13.02;;;1.80;;
28166;SDS011;15455;53.376;-6.262;2022-08-19T00:28:14;8.15;;;1.73;;
28166;SDS011;15455;53.376;-6.262;2022-08-19T00:30:59;13.90;;;2.08;;
28166;SDS011;15455;53.376;-6.262;2022-08-19T00:33:45;11.10;;;1.48;;
28166;SDS011;15455;53.376;-6.262;2022-08-19T00:36:30;20.05;;;2.50;;
28166;SDS011;15455;53.376;-6.262;2022-08-19T00:39:17;16.42;;;2.13;;
28166;SDS011;15455;53.376;-6.262;2022-08-19T00:42:03;13.50;;;2.13;;
28166;SDS011;15455;53.376;-6.262;2022-08-19T00:44:50;11.68;;;1.58;;
28166;SDS011;15455;53.376;-6.262;2022-08-19T00:47:36;11.07;;;1.88;;
28166;SDS011;15455;53.376;-6.262;2022-08-19T00:50:21;21.58;;;2.47;;
28166;SDS011;15455;53.376;-6.262;2022-08-19T00:53:10;15.82;;;2.17;;
28166;SDS011;15455;53.376;-6.262;2022-08-19T00:56:00;12.63;;;2.47;;
28166;SDS011;15455;53.376;-6.262;2022-08-19T00:58:47;21.73;;;2.60;;
28166;SDS011;15455;53.376;-6.262;2022-08-19T01:01:33;12.05;;;2.22;;
28166;SDS011;15455;53.376;-6.262;2022-08-19T01:04:18;17.45;;;2.25;;
28166;SDS011;15455;53.376;-6.262;2022-08-19T01:07:04;20.67;;;2.45;;
28166;SDS011;15455;53.376;-6.262;2022-08-19T01:09:50;19.73;;;2.20;;
28166;SDS011;15455;53.376;-6.262;2022-08-19T01:12:35;11.75;;;2.08;;
28166;SDS011;15455;53.376;-6.262;2022-08-19T01:15:26;25.95;;;3.10;;
28166;SDS011;15455;53.376;-6.262;2022-08-19T01:18:17;24.73;;;2.65;;
28166;SDS011;15455;53.376;-6.262;2022-08-19T01:21:11;21.25;;;2.63;;
28166;SDS011;15455;53.376;-6.262;2022-08-19T01:24:03;13.13;;;2.20;;
28166;SDS011;15455;53.376;-6.262;2022-08-19T01:26:49;21.50;;;2.92;;
28166;SDS011;15455;53.376;-6.262;2022-08-19T01:29:37;21.98;;;2.95;;
28166;SDS011;15455;53.376;-6.262;2022-08-19T01:32:26;22.70;;;2.90;;
28166;SDS011;15455;53.376;-6.262;2022-08-19T01:35:18;18.58;;;2.85;;
28166;SDS011;15455;53.376;-6.262;2022-08-19T01:38:07;10.80;;;2.30;;
28166;SDS011;15455;53.376;-6.262;2022-08-19T01:40:56;15.10;;;2.13;;
28166;SDS011;15455;53.376;-6.262;2022-08-19T01:43:42;20.58;;;2.85;;
28166;SDS011;15455;53.376;-6.262;2022-08-19T01:46:48;12.40;;;2.97;;
28166;SDS011;15455;53.376;-6.262;2022-08-19T01:49:34;22.60;;;2.60;;
28166;SDS011;15455;53.376;-6.262;2022-08-19T01:52:21;26.20;;;2.88;;
28166;SDS011;15455;53.376;-6.262;2022-08-19T01:55:08;19.00;;;2.45;;
28166;SDS011;15455;53.376;-6.262;2022-08-19T01:57:58;12.77;;;2.65;;
28166;SDS011;15455;53.376;-6.262;2022-08-19T02:00:47;13.82;;;2.17;;
28166;SDS011;15455;53.376;-6.262;2022-08-19T02:03:33;21.92;;;2.25;;
28166;SDS011;15455;53.376;-6.262;2022-08-19T02:06:20;20.55;;;2.25;;
28166;SDS011;15455;53.376;-6.262;2022-08-19T02:09:11;13.02;;;2.40;;
28166;SDS011;15455;53.376;-6.262;2022-08-19T02:11:56;16.85;;;2.35;;
28166;SDS011;15455;53.376;-6.262;2022-08-19T02:14:42;12.98;;;2.05;;
28166;SDS011;15455;53.376;-6.262;2022-08-19T02:17:28;13.93;;;3.38;;
28166;SDS011;15455;53.376;-6.262;2022-08-19T02:20:14;15.48;;;2.33;;
28166;SDS011;15455;53.376;-6.262;2022-08-19T02:23:00;19.83;;;2.83;;
28166;SDS011;15455;53.376;-6.262;2022-08-19T02:25:47;20.10;;;2.50;;
28166;SDS011;15455;53.376;-6.262;2022-08-19T02:28:33;16.90;;;3.15;;
28166;SDS011;15455;53.376;-6.262;2022-08-19T02:31:20;12.57;;;2.35;;
28166;SDS011;15455;53.376;-6.262;2022-08-19T02:34:09;17.17;;;2.72;;
28166;SDS011;15455;53.376;-6.262;2022-08-19T02:36:55;15.80;;;2.45;;
28166;SDS011;15455;53.376;-6.262;2022-08-19T02:39:45;11.50;;;2.67;;
28166;SDS011;15455;53.376;-6.262;2022-08-19T02:42:31;20.83;;;2.15;;
28166;SDS011;15455;53.376;-6.262;2022-08-19T02:45:17;12.38;;;2.17;;
28166;SDS011;15455;53.376;-6.262;2022-08-19T02:48:03;15.20;;;1.95;;
28166;SDS011;15455;53.376;-6.262;2022-08-19T02:51:01;13.13;;;2.17;;
28166;SDS011;15455;53.376;-6.262;2022-08-19T02:53:47;18.05;;;2.50;;
28166;SDS011;15455;53.376;-6.262;2022-08-19T02:56:36;14.93;;;2.13;;
28166;SDS011;15455;53.376;-6.262;2022-08-19T02:59:24;18.90;;;1.95;;
28166;SDS011;15455;53.376;-6.262;2022-08-19T03:02:10;15.55;;;2.90;;
28166;SDS011;15455;53.376;-6.262;2022-08-19T03:04:55;27.35;;;3.15;;
28166;SDS011;15455;53.376;-6.262;2022-08-19T03:07:41;22.05;;;2.58;;
28166;SDS011;15455;53.376;-6.262;2022-08-19T03:10:27;13.00;;;2.20;;
28166;SDS011;15455;53.376;-6.262;2022-08-19T03:13:16;13.32;;;2.38;;
28166;SDS011;15455;53.376;-6.262;2022-08-19T03:16:04;14.75;;;2.22;;
28166;SDS011;15455;53.376;-6.262;2022-08-19T03:18:50;23.65;;;2.60;;
28166;SDS011;15455;53.376;-6.262;2022-08-19T03:21:36;6.20;;;1.80;;
28166;SDS011;15455;53.376;-6.262;2022-08-19T03:24:22;13.65;;;1.58;;
28166;SDS011;15455;53.376;-6.262;2022-08-19T03:27:07;14.88;;;2.33;;
28166;SDS011;15455;53.376;-6.262;2022-08-19T03:29:53;16.58;;;1.95;;
28166;SDS011;15455;53.376;-6.262;2022-08-19T03:32:38;14.57;;;2.15;;
28166;SDS011;15455;53.376;-6.262;2022-08-19T03:35:29;15.82;;;1.98;;
28166;SDS011;15455;53.376;-6.262;2022-08-19T03:38:15;10.35;;;1.75;;
28166;SDS011;15455;53.376;-6.262;2022-08-19T03:41:04;16.95;;;1.90;;
28166;SDS011;15455;53.376;-6.262;2022-08-19T03:43:51;13.27;;;2.20;;
28166;SDS011;15455;53.376;-6.262;2022-08-19T03:46:39;9.00;;;1.60;;
28166;SDS011;15455;53.376;-6.262;2022-08-19T03:49:29;11.85;;;1.60;;
28166;SDS011;15455;53.376;-6.262;2022-08-19T03:52:17;12.25;;;1.92;;
28166;SDS011;15455;53.376;-6.262;2022-08-19T03:55:03;7.32;;;1.70;;
28166;SDS011;15455;53.376;-6.262;2022-08-19T03:57:49;16.70;;;1.88;;
28166;SDS011;15455;53.376;-6.262;2022-08-19T04:00:35;12.30;;;1.55;;
28166;SDS011;15455;53.376;-6.262;2022-08-19T04:03:20;12.00;;;1.85;;
28166;SDS011;15455;53.376;-6.262;2022-08-19T04:06:13;11.75;;;1.70;;
28166;SDS011;15455;53.376;-6.262;2022-08-19T04:09:01;10.93;;;1.55;;
28166;SDS011;15455;53.376;-6.262;2022-08-19T04:11:49;23.27;;;1.88;;
28166;SDS011;15455;53.376;-6.262;2022-08-19T04:14:39;9.65;;;1.02;;
28166;SDS011;15455;53.376;-6.262;2022-08-19T04:17:24;10.23;;;1.63;;
28166;SDS011;15455;53.376;-6.262;2022-08-19T04:20:10;20.65;;;1.85;;
28166;SDS011;15455;53.376;-6.262;2022-08-19T04:22:56;11.38;;;1.77;;
28166;SDS011;15455;53.376;-6.262;2022-08-19T04:25:43;13.02;;;1.52;;
28166;SDS011;15455;53.376;-6.262;2022-08-19T04:28:29;6.63;;;1.25;;
28166;SDS011;15455;53.376;-6.262;2022-08-19T04:31:16;8.77;;;1.48;;
28166;SDS011;15455;53.376;-6.262;2022-08-19T04:34:06;8.30;;;1.30;;
28166;SDS011;15455;53.376;-6.262;2022-08-19T04:36:53;14.98;;;1.83;;
28166;SDS011;15455;53.376;-6.262;2022-08-19T04:39:41;14.70;;;2.05;;
28166;SDS011;15455;53.376;-6.262;2022-08-19T04:42:47;8.95;;;1.60;;
28166;SDS011;15455;53.376;-6.262;2022-08-19T04:45:32;10.65;;;1.50;;
28166;SDS011;15455;53.376;-6.262;2022-08-19T04:48:27;11.50;;;1.27;;
28166;SDS011;15455;53.376;-6.262;2022-08-19T04:51:13;12.57;;;1.58;;
28166;SDS011;15455;53.376;-6.262;2022-08-19T04:54:03;6.15;;;1.27;;
28166;SDS011;15455;53.376;-6.262;2022-08-19T04:56:49;12.35;;;2.10;;
28166;SDS011;15455;53.376;-6.262;2022-08-19T04:59:35;8.07;;;1.25;;
28166;SDS011;15455;53.376;-6.262;2022-08-19T05:02:22;16.02;;;1.90;;
28166;SDS011;15455;53.376;-6.262;2022-08-19T05:05:10;11.20;;;1.67;;
28166;SDS011;15455;53.376;-6.262;2022-08-19T05:07:57;6.53;;;1.10;;
28166;SDS011;15455;53.376;-6.262;2022-08-19T05:10:42;8.05;;;1.75;;
28166;SDS011;15455;53.376;-6.262;2022-08-19T05:13:28;7.97;;;1.35;;
28166;SDS011;15455;53.376;-6.262;2022-08-19T05:16:14;7.43;;;1.35;;
28166;SDS011;15455;53.376;-6.262;2022-08-19T05:19:01;10.65;;;1.42;;
28166;SDS011;15455;53.376;-6.262;2022-08-19T05:22:05;7.82;;;1.20;;
28166;SDS011;15455;53.376;-6.262;2022-08-19T05:25:11;11.88;;;1.35;;
28166;SDS011;15455;53.376;-6.262;2022-08-19T05:27:59;9.35;;;1.48;;
28166;SDS011;15455;53.376;-6.262;2022-08-19T05:30:44;9.55;;;1.17;;
28166;SDS011;15455;53.376;-6.262;2022-08-19T05:33:31;14.60;;;1.52;;
28166;SDS011;15455;53.376;-6.262;2022-08-19T05:36:17;9.05;;;1.38;;
28166;SDS011;15455;53.376;-6.262;2022-08-19T05:39:05;10.32;;;1.50;;
28166;SDS011;15455;53.376;-6.262;2022-08-19T05:41:59;5.85;;;1.23;;
28166;SDS011;15455;53.376;-6.262;2022-08-19T05:44:48;10.07;;;1.00;;
28166;SDS011;15455;53.376;-6.262;2022-08-19T05:47:35;10.60;;;1.73;;
28166;SDS011;15455;53.376;-6.262;2022-08-19T05:50:26;15.07;;;1.40;;
28166;SDS011;15455;53.376;-6.262;2022-08-19T05:53:11;3.92;;;1.13;;
28166;SDS011;15455;53.376;-6.262;2022-08-19T05:56:06;9.07;;;1.67;;
28166;SDS011;15455;53.376;-6.262;2022-08-19T05:58:53;11.43;;;1.20;;
28166;SDS011;15455;53.376;-6.262;2022-08-19T06:01:44;7.25;;;1.33;;
28166;SDS011;15455;53.376;-6.262;2022-08-19T06:04:30;5.97;;;1.00;;
28166;SDS011;15455;53.376;-6.262;2022-08-19T06:07:16;8.45;;;1.40;;
28166;SDS011;15455;53.376;-6.262;2022-08-19T06:10:05;7.07;;;1.27;;
28166;SDS011;15455;53.376;-6.262;2022-08-19T06:12:53;4.43;;;1.02;;
28166;SDS011;15455;53.376;-6.262;2022-08-19T06:15:39;11.80;;;1.20;;
28166;SDS011;15455;53.376;-6.262;2022-08-19T06:18:26;6.00;;;1.00;;
28166;SDS011;15455;53.376;-6.262;2022-08-19T06:21:13;7.03;;;0.95;;
28166;SDS011;15455;53.376;-6.262;2022-08-19T06:23:59;9.38;;;1.38;;
28166;SDS011;15455;53.376;-6.262;2022-08-19T06:26:46;7.25;;;0.70;;
28166;SDS011;15455;53.376;-6.262;2022-08-19T06:29:37;5.80;;;0.80;;
28166;SDS011;15455;53.376;-6.262;2022-08-19T06:32:23;8.50;;;0.90;;
28166;SDS011;15455;53.376;-6.262;2022-08-19T06:35:09;1.45;;;0.55;;
28166;SDS011;15455;53.376;-6.262;2022-08-19T06:37:55;5.30;;;0.70;;
28166;SDS011;15455;53.376;-6.262;2022-08-19T06:40:41;6.50;;;0.80;;
28166;SDS011;15455;53.376;-6.262;2022-08-19T06:43:28;5.20;;;1.13;;
28166;SDS011;15455;53.376;-6.262;2022-08-19T06:46:14;8.07;;;0.55;;
28166;SDS011;15455;53.376;-6.262;2022-08-19T06:49:01;4.93;;;0.93;;
28166;SDS011;15455;53.376;-6.262;2022-08-19T06:51:50;5.22;;;0.93;;
28166;SDS011;15455;53.376;-6.262;2022-08-19T06:54:36;5.30;;;0.82;;
28166;SDS011;15455;53.376;-6.262;2022-08-19T06:57:40;6.32;;;0.63;;
28166;SDS011;15455;53.376;-6.262;2022-08-19T07:00:25;6.30;;;1.40;;
28166;SDS011;15455;53.376;-6.262;2022-08-19T07:03:11;8.07;;;0.70;;
28166;SDS011;15455;53.376;-6.262;2022-08-19T07:06:02;4.43;;;0.82;;
28166;SDS011;15455;53.376;-6.262;2022-08-19T07:09:15;3.28;;;0.60;;
28166;SDS011;15455;53.376;-6.262;2022-08-19T07:12:06;7.85;;;1.00;;
28166;SDS011;15455;53.376;-6.262;2022-08-19T07:14:54;5.72;;;0.70;;
28166;SDS011;15455;53.376;-6.262;2022-08-19T07:17:41;15.68;;;1.58;;
28166;SDS011;15455;53.376;-6.262;2022-08-19T07:20:28;14.68;;;1.15;;
28166;SDS011;15455;53.376;-6.262;2022-08-19T07:23:13;8.95;;;0.98;;
28166;SDS011;15455;53.376;-6.262;2022-08-19T07:26:04;9.68;;;1.30;;
28166;SDS011;15455;53.376;-6.262;2022-08-19T07:28:55;4.53;;;0.80;;
28166;SDS011;15455;53.376;-6.262;2022-08-19T07:31:42;6.13;;;1.33;;
28166;SDS011;15455;53.376;-6.262;2022-08-19T07:34:28;4.32;;;1.38;;
28166;SDS011;15455;53.376;-6.262;2022-08-19T07:37:15;5.18;;;0.95;;
28166;SDS011;15455;53.376;-6.262;2022-08-19T07:40:01;1.77;;;0.50;;
28166;SDS011;15455;53.376;-6.262;2022-08-19T07:42:47;3.67;;;0.88;;
28166;SDS011;15455;53.376;-6.262;2022-08-19T07:45:33;11.85;;;1.08;;
28166;SDS011;15455;53.376;-6.262;2022-08-19T07:48:18;2.00;;;0.68;;
28166;SDS011;15455;53.376;-6.262;2022-08-19T07:51:05;3.58;;;0.95;;
28166;SDS011;15455;53.376;-6.262;2022-08-19T07:53:53;8.18;;;1.38;;
28166;SDS011;15455;53.376;-6.262;2022-08-19T07:56:39;3.47;;;1.05;;
28166;SDS011;15455;53.376;-6.262;2022-08-19T07:59:25;2.33;;;0.60;;
28166;SDS011;15455;53.376;-6.262;2022-08-19T08:02:10;9.13;;;1.38;;
28166;SDS011;15455;53.376;-6.262;2022-08-19T08:04:56;3.92;;;0.68;;
28166;SDS011;15455;53.376;-6.262;2022-08-19T08:08:00;2.88;;;0.57;;
28166;SDS011;15455;53.376;-6.262;2022-08-19T08:11:11;3.60;;;0.50;;
28166;SDS011;15455;53.376;-6.262;2022-08-19T08:13:59;2.63;;;0.60;;
28166;SDS011;15455;53.376;-6.262;2022-08-19T08:16:49;5.13;;;0.65;;
28166;SDS011;15455;53.376;-6.262;2022-08-19T08:19:35;4.93;;;1.48;;
28166;SDS011;15455;53.376;-6.262;2022-08-19T08:22:22;4.53;;;0.80;;
28166;SDS011;15455;53.376;-6.262;2022-08-19T08:25:27;3.33;;;0.60;;
28166;SDS011;15455;53.376;-6.262;2022-08-19T08:28:17;6.72;;;0.75;;
28166;SDS011;15455;53.376;-6.262;2022-08-19T08:31:03;6.63;;;1.42;;
28166;SDS011;15455;53.376;-6.262;2022-08-19T08:33:53;5.63;;;0.73;;
28166;SDS011;15455;53.376;-6.262;2022-08-19T08:36:40;6.15;;;1.02;;
28166;SDS011;15455;53.376;-6.262;2022-08-19T08:39:29;5.85;;;0.93;;
28166;SDS011;15455;53.376;-6.262;2022-08-19T08:45:20;4.93;;;0.80;;
28166;SDS011;15455;53.376;-6.262;2022-08-19T08:48:13;9.10;;;0.82;;
28166;SDS011;15455;53.376;-6.262;2022-08-19T08:51:09;7.13;;;1.20;;
28166;SDS011;15455;53.376;-6.262;2022-08-19T08:54:19;8.55;;;0.70;;
28166;SDS011;15455;53.376;-6.262;2022-08-19T08:57:11;10.57;;;0.63;;
28166;SDS011;15455;53.376;-6.262;2022-08-19T09:00:01;2.95;;;0.85;;
28166;SDS011;15455;53.376;-6.262;2022-08-19T09:03:00;3.25;;;0.50;;
28166;SDS011;15455;53.376;-6.262;2022-08-19T09:06:07;1.77;;;0.25;;
28166;SDS011;15455;53.376;-6.262;2022-08-19T09:09:31;1.60;;;0.45;;
28166;SDS011;15455;53.376;-6.262;2022-08-19T09:15:28;4.85;;;0.38;;
28166;SDS011;15455;53.376;-6.262;2022-08-19T09:18:21;3.75;;;0.60;;
28166;SDS011;15455;53.376;-6.262;2022-08-19T09:21:06;1.90;;;0.32;;
28166;SDS011;15455;53.376;-6.262;2022-08-19T09:23:53;3.90;;;0.55;;
28166;SDS011;15455;53.376;-6.262;2022-08-19T09:26:39;0.65;;;0.20;;
28166;SDS011;15455;53.376;-6.262;2022-08-19T09:29:36;4.03;;;0.50;;
28166;SDS011;15455;53.376;-6.262;2022-08-19T09:32:22;3.88;;;0.40;;
28166;SDS011;15455;53.376;-6.262;2022-08-19T09:35:11;3.33;;;0.82;;
28166;SDS011;15455;53.376;-6.262;2022-08-19T09:37:59;8.00;;;0.85;;
28166;SDS011;15455;53.376;-6.262;2022-08-19T09:40:46;4.13;;;0.90;;
28166;SDS011;15455;53.376;-6.262;2022-08-19T09:43:33;5.68;;;0.45;;
28166;SDS011;15455;53.376;-6.262;2022-08-19T09:46:32;3.85;;;0.60;;
28166;SDS011;15455;53.376;-6.262;2022-08-19T09:49:17;4.00;;;0.88;;
28166;SDS011;15455;53.376;-6.262;2022-08-19T09:52:05;2.97;;;0.60;;
28166;SDS011;15455;53.376;-6.262;2022-08-19T09:54:57;5.80;;;0.40;;
28166;SDS011;15455;53.376;-6.262;2022-08-19T09:57:43;3.47;;;0.82;;
28166;SDS011;15455;53.376;-6.262;2022-08-19T10:00:29;4.80;;;0.68;;
28166;SDS011;15455;53.376;-6.262;2022-08-19T10:03:16;1.52;;;0.38;;
28166;SDS011;15455;53.376;-6.262;2022-08-19T10:06:02;3.45;;;0.90;;
28166;SDS011;15455;53.376;-6.262;2022-08-19T10:08:59;4.68;;;0.73;;
28166;SDS011;15455;53.376;-6.262;2022-08-19T10:11:45;7.85;;;0.85;;
28166;SDS011;15455;53.376;-6.262;2022-08-19T10:14:39;9.02;;;0.80;;
28166;SDS011;15455;53.376;-6.262;2022-08-19T10:17:24;2.85;;;0.52;;
28166;SDS011;15455;53.376;-6.262;2022-08-19T10:20:17;3.78;;;0.55;;
28166;SDS011;15455;53.376;-6.262;2022-08-19T10:23:03;6.53;;;0.60;;
28166;SDS011;15455;53.376;-6.262;2022-08-19T10:25:48;4.63;;;1.55;;
28166;SDS011;15455;53.376;-6.262;2022-08-19T10:28:35;3.80;;;0.55;;
28166;SDS011;15455;53.376;-6.262;2022-08-19T10:31:28;3.35;;;0.85;;
28166;SDS011;15455;53.376;-6.262;2022-08-19T10:34:35;5.25;;;0.73;;
28166;SDS011;15455;53.376;-6.262;2022-08-19T10:37:32;3.17;;;0.60;;
28166;SDS011;15455;53.376;-6.262;2022-08-19T10:40:19;5.10;;;0.75;;
28166;SDS011;15455;53.376;-6.262;2022-08-19T10:43:05;7.95;;;0.80;;
28166;SDS011;15455;53.376;-6.262;2022-08-19T10:45:54;4.10;;;0.52;;
28166;SDS011;15455;53.376;-6.262;2022-08-19T10:48:44;3.42;;;0.60;;
28166;SDS011;15455;53.376;-6.262;2022-08-19T10:51:30;5.35;;;0.90;;
28166;SDS011;15455;53.376;-6.262;2022-08-19T10:54:35;7.50;;;0.90;;
28166;SDS011;15455;53.376;-6.262;2022-08-19T10:57:39;7.88;;;0.90;;
28166;SDS011;15455;53.376;-6.262;2022-08-19T11:00:50;3.78;;;0.80;;
28166;SDS011;15455;53.376;-6.262;2022-08-19T11:03:41;9.77;;;1.27;;
28166;SDS011;15455;53.376;-6.262;2022-08-19T11:06:26;5.75;;;1.40;;
28166;SDS011;15455;53.376;-6.262;2022-08-19T11:09:22;5.47;;;1.00;;
28166;SDS011;15455;53.376;-6.262;2022-08-19T11:12:18;7.00;;;1.27;;
28166;SDS011;15455;53.376;-6.262;2022-08-19T11:15:05;8.85;;;1.30;;
28166;SDS011;15455;53.376;-6.262;2022-08-19T11:17:54;8.60;;;1.10;;
28166;SDS011;15455;53.376;-6.262;2022-08-19T11:20:41;8.32;;;1.38;;
28166;SDS011;15455;53.376;-6.262;2022-08-19T11:23:26;2.95;;;0.93;;
28166;SDS011;15455;53.376;-6.262;2022-08-19T11:26:11;7.93;;;1.88;;
28166;SDS011;15455;53.376;-6.262;2022-08-19T11:28:58;11.82;;;1.38;;
28166;SDS011;15455;53.376;-6.262;2022-08-19T11:31:46;3.92;;;0.55;;
28166;SDS011;15455;53.376;-6.262;2022-08-19T11:34:32;4.68;;;1.00;;
28166;SDS011;15455;53.376;-6.262;2022-08-19T11:37:20;5.10;;;1.00;;
28166;SDS011;15455;53.376;-6.262;2022-08-19T11:40:06;9.98;;;0.95;;
28166;SDS011;15455;53.376;-6.262;2022-08-19T11:42:52;8.30;;;0.98;;
28166;SDS011;15455;53.376;-6.262;2022-08-19T11:45:41;5.32;;;0.95;;
28166;SDS011;15455;53.376;-6.262;2022-08-19T11:48:26;9.25;;;1.10;;
28166;SDS011;15455;53.376;-6.262;2022-08-19T11:51:13;3.03;;;0.90;;
28166;SDS011;15455;53.376;-6.262;2022-08-19T11:54:01;4.93;;;1.00;;
28166;SDS011;15455;53.376;-6.262;2022-08-19T11:56:49;1.92;;;0.60;;
28166;SDS011;15455;53.376;-6.262;2022-08-19T11:59:34;5.75;;;1.10;;
28166;SDS011;15455;53.376;-6.262;2022-08-19T12:02:20;3.70;;;0.70;;
28166;SDS011;15455;53.376;-6.262;2022-08-19T12:05:07;8.20;;;1.00;;
28166;SDS011;15455;53.376;-6.262;2022-08-19T12:07:57;5.75;;;1.15;;
28166;SDS011;15455;53.376;-6.262;2022-08-19T12:10:42;11.20;;;1.65;;
28166;SDS011;15455;53.376;-6.262;2022-08-19T12:13:30;6.32;;;1.27;;
28166;SDS011;15455;53.376;-6.262;2022-08-19T12:16:17;6.93;;;0.88;;
28166;SDS011;15455;53.376;-6.262;2022-08-19T12:19:04;8.50;;;1.60;;
28166;SDS011;15455;53.376;-6.262;2022-08-19T12:21:50;8.23;;;1.35;;
28166;SDS011;15455;53.376;-6.262;2022-08-19T12:24:37;9.32;;;1.35;;
28166;SDS011;15455;53.376;-6.262;2022-08-19T12:27:23;8.93;;;1.60;;
28166;SDS011;15455;53.376;-6.262;2022-08-19T12:30:24;8.15;;;1.30;;
28166;SDS011;15455;53.376;-6.262;2022-08-19T12:33:10;7.45;;;1.60;;
28166;SDS011;15455;53.376;-6.262;2022-08-19T12:35:59;4.22;;;1.40;;
28166;SDS011;15455;53.376;-6.262;2022-08-19T12:38:46;6.15;;;1.25;;
28166;SDS011;15455;53.376;-6.262;2022-08-19T12:41:31;5.55;;;1.35;;
28166;SDS011;15455;53.376;-6.262;2022-08-19T12:44:17;6.00;;;1.40;;
28166;SDS011;15455;53.376;-6.262;2022-08-19T12:47:03;3.97;;;1.27;;
28166;SDS011;15455;53.376;-6.262;2022-08-19T12:49:52;7.20;;;1.15;;
28166;SDS011;15455;53.376;-6.262;2022-08-19T12:52:39;7.38;;;1.08;;
28166;SDS011;15455;53.376;-6.262;2022-08-19T12:55:27;7.63;;;0.95;;
28166;SDS011;15455;53.376;-6.262;2022-08-19T12:58:14;7.55;;;0.93;;
28166;SDS011;15455;53.376;-6.262;2022-08-19T13:01:00;6.07;;;1.27;;
28166;SDS011;15455;53.376;-6.262;2022-08-19T13:06:40;5.68;;;1.27;;
28166;SDS011;15455;53.376;-6.262;2022-08-19T13:09:25;8.98;;;1.50;;
28166;SDS011;15455;53.376;-6.262;2022-08-19T13:12:11;6.35;;;1.30;;
28166;SDS011;15455;53.376;-6.262;2022-08-19T13:14:58;4.97;;;1.30;;
28166;SDS011;15455;53.376;-6.262;2022-08-19T13:17:44;3.92;;;1.23;;
28166;SDS011;15455;53.376;-6.262;2022-08-19T13:20:29;9.32;;;1.40;;
28166;SDS011;15455;53.376;-6.262;2022-08-19T13:23:15;7.45;;;1.38;;
28166;SDS011;15455;53.376;-6.262;2022-08-19T13:26:01;9.80;;;1.98;;
28166;SDS011;15455;53.376;-6.262;2022-08-19T13:28:49;5.70;;;1.30;;
28166;SDS011;15455;53.376;-6.262;2022-08-19T13:31:54;12.20;;;1.70;;
28166;SDS011;15455;53.376;-6.262;2022-08-19T13:35:03;7.15;;;1.52;;
28166;SDS011;15455;53.376;-6.262;2022-08-19T13:37:49;5.65;;;1.10;;
28166;SDS011;15455;53.376;-6.262;2022-08-19T13:40:35;7.10;;;1.23;;
28166;SDS011;15455;53.376;-6.262;2022-08-19T13:43:25;7.75;;;1.58;;
28166;SDS011;15455;53.376;-6.262;2022-08-19T13:46:11;8.20;;;1.30;;
28166;SDS011;15455;53.376;-6.262;2022-08-19T13:48:58;6.38;;;1.58;;
28166;SDS011;15455;53.376;-6.262;2022-08-19T13:51:44;6.45;;;1.92;;
28166;SDS011;15455;53.376;-6.262;2022-08-19T13:54:30;8.95;;;1.50;;
28166;SDS011;15455;53.376;-6.262;2022-08-19T13:57:15;4.75;;;1.33;;
28166;SDS011;15455;53.376;-6.262;2022-08-19T14:00:00;8.32;;;1.50;;
28166;SDS011;15455;53.376;-6.262;2022-08-19T14:02:50;5.68;;;2.15;;
28166;SDS011;15455;53.376;-6.262;2022-08-19T14:05:37;5.72;;;1.55;;
28166;SDS011;15455;53.376;-6.262;2022-08-19T14:08:23;4.10;;;1.42;;
28166;SDS011;15455;53.376;-6.262;2022-08-19T14:11:08;4.10;;;1.10;;
28166;SDS011;15455;53.376;-6.262;2022-08-19T14:13:54;6.22;;;1.20;;
28166;SDS011;15455;53.376;-6.262;2022-08-19T14:16:39;2.92;;;0.85;;
28166;SDS011;15455;53.376;-6.262;2022-08-19T14:19:25;4.55;;;1.15;;
28166;SDS011;15455;53.376;-6.262;2022-08-19T14:22:14;7.95;;;1.08;;
28166;SDS011;15455;53.376;-6.262;2022-08-19T14:25:07;5.18;;;1.13;;
28166;SDS011;15455;53.376;-6.262;2022-08-19T14:27:54;4.20;;;1.05;;
28166;SDS011;15455;53.376;-6.262;2022-08-19T14:30:40;3.17;;;0.63;;
28166;SDS011;15455;53.376;-6.262;2022-08-19T14:33:26;2.25;;;0.60;;
28166;SDS011;15455;53.376;-6.262;2022-08-19T14:36:14;2.88;;;0.88;;
28166;SDS011;15455;53.376;-6.262;2022-08-19T14:39:00;3.97;;;0.93;;
28166;SDS011;15455;53.376;-6.262;2022-08-19T14:41:46;6.47;;;1.00;;
28166;SDS011;15455;53.376;-6.262;2022-08-19T14:44:31;4.65;;;0.98;;
28166;SDS011;15455;53.376;-6.262;2022-08-19T14:47:21;6.68;;;1.10;;
28166;SDS011;15455;53.376;-6.262;2022-08-19T14:50:07;1.77;;;0.73;;
28166;SDS011;15455;53.376;-6.262;2022-08-19T14:53:07;2.67;;;0.60;;
28166;SDS011;15455;53.376;-6.262;2022-08-19T14:55:56;3.80;;;1.20;;
28166;SDS011;15455;53.376;-6.262;2022-08-19T14:58:42;6.80;;;1.00;;
28166;SDS011;15455;53.376;-6.262;2022-08-19T15:01:28;3.97;;;0.70;;
28166;SDS011;15455;53.376;-6.262;2022-08-19T15:04:14;6.00;;;1.05;;
28166;SDS011;15455;53.376;-6.262;2022-08-19T15:06:59;4.20;;;1.20;;
28166;SDS011;15455;53.376;-6.262;2022-08-19T15:09:44;4.82;;;1.00;;
28166;SDS011;15455;53.376;-6.262;2022-08-19T15:12:36;4.40;;;0.90;;
28166;SDS011;15455;53.376;-6.262;2022-08-19T15:15:25;2.80;;;0.70;;
28166;SDS011;15455;53.376;-6.262;2022-08-19T15:18:11;3.85;;;0.60;;
28166;SDS011;15455;53.376;-6.262;2022-08-19T15:20:57;4.07;;;0.57;;
28166;SDS011;15455;53.376;-6.262;2022-08-19T15:23:43;1.92;;;0.80;;
28166;SDS011;15455;53.376;-6.262;2022-08-19T15:26:33;6.15;;;0.98;;
28166;SDS011;15455;53.376;-6.262;2022-08-19T15:29:18;6.97;;;0.60;;
28166;SDS011;15455;53.376;-6.262;2022-08-19T15:32:04;3.63;;;0.73;;
28166;SDS011;15455;53.376;-6.262;2022-08-19T15:34:52;4.00;;;0.93;;
28166;SDS011;15455;53.376;-6.262;2022-08-19T15:37:37;0.95;;;0.35;;
28166;SDS011;15455;53.376;-6.262;2022-08-19T15:40:23;4.10;;;0.88;;
28166;SDS011;15455;53.376;-6.262;2022-08-19T15:43:10;2.20;;;0.60;;
28166;SDS011;15455;53.376;-6.262;2022-08-19T15:45:55;1.95;;;0.60;;
28166;SDS011;15455;53.376;-6.262;2022-08-19T15:48:41;5.47;;;0.60;;
28166;SDS011;15455;53.376;-6.262;2022-08-19T15:51:27;2.95;;;0.60;;
28166;SDS011;15455;53.376;-6.262;2022-08-19T15:54:15;4.80;;;1.15;;
28166;SDS011;15455;53.376;-6.262;2022-08-19T15:57:05;3.05;;;0.80;;
28166;SDS011;15455;53.376;-6.262;2022-08-19T16:00:06;1.75;;;0.98;;
28166;SDS011;15455;53.376;-6.262;2022-08-19T16:03:12;3.13;;;1.40;;
28166;SDS011;15455;53.376;-6.262;2022-08-19T16:06:24;1.95;;;0.68;;
28166;SDS011;15455;53.376;-6.262;2022-08-19T16:09:12;3.75;;;0.50;;
28166;SDS011;15455;53.376;-6.262;2022-08-19T16:12:00;1.60;;;0.40;;
28166;SDS011;15455;53.376;-6.262;2022-08-19T16:14:49;1.25;;;0.47;;
28166;SDS011;15455;53.376;-6.262;2022-08-19T16:17:34;1.38;;;0.55;;
28166;SDS011;15455;53.376;-6.262;2022-08-19T16:20:20;3.50;;;0.57;;
28166;SDS011;15455;53.376;-6.262;2022-08-19T16:23:09;1.17;;;0.30;;
28166;SDS011;15455;53.376;-6.262;2022-08-19T16:25:54;0.75;;;0.38;;
28166;SDS011;15455;53.376;-6.262;2022-08-19T16:28:40;1.80;;;0.68;;
28166;SDS011;15455;53.376;-6.262;2022-08-19T16:31:26;2.75;;;0.88;;
28166;SDS011;15455;53.376;-6.262;2022-08-19T16:34:12;4.18;;;0.90;;
28166;SDS011;15455;53.376;-6.262;2022-08-19T16:36:58;0.93;;;0.63;;
28166;SDS011;15455;53.376;-6.262;2022-08-19T16:39:44;4.68;;;0.60;;
28166;SDS011;15455;53.376;-6.262;2022-08-19T16:42:29;1.25;;;0.47;;
28166;SDS011;15455;53.376;-6.262;2022-08-19T16:45:15;3.55;;;0.40;;